createdAt,value
2022-11-15T00:01:55.100Z,5.91
2022-11-15T00:06:52.814Z,5.92
2022-11-15T00:11:52.644Z,5.95
2022-11-15T00:16:55.780Z,5.98
2022-11-15T00:21:55.217Z,5.97
2022-11-15T00:26:52.695Z,5.99
2022-11-15T00:31:52.728Z,6.02
2022-11-15T00:36:55.622Z,6.04
2022-11-15T00:41:52.793Z,6.04
2022-11-15T00:46:53.142Z,6.06
2022-11-15T00:51:52.861Z,6.09
2022-11-15T00:56:52.756Z,6.11
2022-11-15T01:01:52.783Z,6.13
2022-11-15T01:06:52.679Z,6.15
2022-11-15T01:11:52.839Z,6.16
2022-11-15T01:16:53.986Z,6.19
2022-11-15T01:21:53.058Z,6.2
2022-11-15T01:26:52.649Z,6.24
2022-11-15T01:31:54.681Z,6.25
2022-11-15T01:36:52.573Z,6.27
2022-11-15T01:41:52.667Z,6.29
2022-11-15T01:46:53.131Z,6.32
2022-11-15T01:51:54.759Z,6.33
2022-11-15T01:56:56.362Z,6.35
2022-11-15T02:01:52.704Z,6.37
2022-11-15T02:06:55.203Z,6.4
2022-11-15T02:11:54.753Z,6.41
2022-11-15T02:16:57.310Z,6.44
2022-11-15T02:21:58.385Z,6.45
2022-11-15T02:27:10.336Z,6.48
2022-11-15T02:31:56.400Z,6.49
2022-11-15T02:36:56.702Z,6.52
2022-11-15T02:41:55.403Z,6.54
2022-11-15T02:47:06.028Z,6.56
2022-11-15T02:51:55.850Z,6.58
2022-11-15T02:56:53.739Z,6.62
2022-11-15T03:02:00.178Z,6.63
2022-11-15T03:06:54.734Z,6.67
2022-11-15T03:11:57.503Z,6.68
2022-11-15T03:16:55.808Z,6.72
2022-11-15T03:21:53.900Z,6.75
2022-11-15T03:26:57.561Z,6.77
2022-11-15T03:31:55.186Z,6.82
2022-11-15T03:36:54.489Z,6.86
2022-11-15T03:41:53.625Z,6.92
2022-11-15T03:47:03.711Z,6.98
2022-11-15T03:51:52.584Z,7.05
2022-11-15T03:56:52.520Z,7.11
2022-11-15T04:01:52.712Z,7.17
2022-11-15T04:06:52.850Z,7.28
2022-11-15T04:11:53.281Z,7.32
2022-11-15T04:16:52.576Z,7.39
2022-11-15T04:22:04.055Z,7.46
2022-11-15T04:26:52.690Z,7.52
2022-11-15T04:31:52.631Z,7.54
2022-11-15T04:37:03.988Z,7.56
2022-11-15T04:41:52.480Z,7.61
2022-11-15T04:46:52.718Z,7.65
2022-11-15T04:51:53.224Z,7.7
2022-11-15T04:56:55.490Z,7.76
2022-11-15T05:01:54.674Z,7.84
2022-11-15T05:06:55.500Z,7.9
2022-11-15T05:11:52.781Z,7.94
2022-11-15T05:16:52.936Z,7.96
2022-11-15T05:21:52.582Z,8
2022-11-15T05:26:52.730Z,8.04
2022-11-15T05:31:52.550Z,8.09
2022-11-15T05:36:52.595Z,8.1
2022-11-15T05:41:53.813Z,8.18
2022-11-15T05:46:54.210Z,8.2
2022-11-15T05:51:53.265Z,8.23
2022-11-15T05:56:53.399Z,8.27
2022-11-15T06:01:52.829Z,8.32
2022-11-15T06:06:52.703Z,8.36
2022-11-15T06:11:52.578Z,8.41
2022-11-15T06:16:55.145Z,8.48
2022-11-15T06:21:52.585Z,8.47
2022-11-15T06:26:52.826Z,8.5
2022-11-15T06:31:53.421Z,8.52
2022-11-15T06:36:52.487Z,8.5
2022-11-15T06:41:52.601Z,8.51
2022-11-15T06:46:52.703Z,8.52
2022-11-15T06:51:52.614Z,8.53
2022-11-15T06:56:53.700Z,8.51
2022-11-15T07:01:54.052Z,8.52
2022-11-15T07:06:54.531Z,8.48
2022-11-15T07:11:52.564Z,8.48
2022-11-15T07:16:52.524Z,8.47
2022-11-15T07:21:52.536Z,8.48
2022-11-15T07:26:52.789Z,8.49
2022-11-15T07:31:52.506Z,8.5
2022-11-15T07:36:52.539Z,8.48
2022-11-15T07:42:04.627Z,8.46
2022-11-15T07:46:52.548Z,8.46
2022-11-15T07:51:52.691Z,8.47
2022-11-15T07:56:52.637Z,8.45
2022-11-15T08:01:52.801Z,8.45
2022-11-15T08:06:52.691Z,8.44
2022-11-15T08:11:52.578Z,8.42
2022-11-15T08:16:53.303Z,8.4
2022-11-15T08:21:53.156Z,8.38
2022-11-15T08:26:52.800Z,8.41
2022-11-15T08:31:54.602Z,8.47
2022-11-15T08:36:52.559Z,8.54
2022-11-15T08:41:52.645Z,8.62
2022-11-15T08:46:53.839Z,8.68
2022-11-15T08:51:52.668Z,8.75
2022-11-15T08:56:52.574Z,8.81
2022-11-15T09:01:52.613Z,8.88
2022-11-15T09:06:52.574Z,8.94
2022-11-15T09:11:53.100Z,9.03
2022-11-15T09:16:52.461Z,9.15
2022-11-15T09:21:52.658Z,9.26
2022-11-15T09:26:54.275Z,9.42
2022-11-15T09:31:52.498Z,9.52
2022-11-15T09:36:52.475Z,9.62
2022-11-15T09:42:02.788Z,9.71
2022-11-15T09:46:56.436Z,9.79
2022-11-15T09:51:55.388Z,10.04
2022-11-15T09:56:52.840Z,10.08
2022-11-15T10:01:56.507Z,10.22
2022-11-15T10:06:58.685Z,10.31
2022-11-15T10:11:52.601Z,10.39
2022-11-15T10:17:02.732Z,10.45
2022-11-15T10:22:01.325Z,10.54
2022-11-15T10:26:54.922Z,10.58
2022-11-15T10:31:52.907Z,10.58
2022-11-15T10:36:59.026Z,10.63
2022-11-15T10:41:52.537Z,10.64
2022-11-15T10:47:05.122Z,10.73
2022-11-15T10:51:57.019Z,10.79
2022-11-15T10:56:53.562Z,10.84
2022-11-15T11:01:55.476Z,10.89
2022-11-15T11:06:59.165Z,10.92
2022-11-15T11:11:53.437Z,10.95
2022-11-15T11:16:54.470Z,10.99
2022-11-15T11:21:59.534Z,11.06
2022-11-15T11:27:05.497Z,11.12
2022-11-15T11:31:59.167Z,11.19
2022-11-15T11:36:55.103Z,11.25
2022-11-15T11:41:58.521Z,11.32
2022-11-15T11:47:01.476Z,11.33
2022-11-15T11:51:56.190Z,11.34
2022-11-15T11:56:53.238Z,11.35
2022-11-15T12:01:53.413Z,11.38
2022-11-15T12:06:58.185Z,11.43
2022-11-15T12:11:55.815Z,11.45
2022-11-15T12:16:52.470Z,11.49
2022-11-15T12:21:55.091Z,11.49
2022-11-15T12:26:56.450Z,11.5
2022-11-15T12:31:53.905Z,11.52
2022-11-15T12:36:53.357Z,11.52
2022-11-15T12:42:02.543Z,11.52
2022-11-15T12:47:09.045Z,11.54
2022-11-15T12:52:09.958Z,11.58
2022-11-15T12:57:02.377Z,11.54
2022-11-15T13:02:04.543Z,11.53
2022-11-15T13:06:55.030Z,11.48
2022-11-15T13:11:59.491Z,11.47
2022-11-15T13:16:52.594Z,11.52
2022-11-15T13:22:08.614Z,11.56
2022-11-15T13:26:52.576Z,11.53
2022-11-15T13:31:52.748Z,11.48
2022-11-15T13:36:52.565Z,11.45
2022-11-15T13:41:55.164Z,11.44
2022-11-15T13:46:52.642Z,11.38
2022-11-15T13:51:55.161Z,11.35
2022-11-15T13:56:56.450Z,11.32
2022-11-15T14:01:54.387Z,11.23
2022-11-15T14:07:01.151Z,11.23
2022-11-15T14:11:59.790Z,11.2
2022-11-15T14:16:54.638Z,11.11
2022-11-15T14:22:03.718Z,11.1
2022-11-15T14:26:52.764Z,10.98
2022-11-15T14:31:55.152Z,10.91
2022-11-15T14:36:52.526Z,10.91
2022-11-15T14:41:55.150Z,10.86
2022-11-15T14:46:52.448Z,10.81
2022-11-15T14:51:52.483Z,10.76
2022-11-15T14:56:52.501Z,10.72
2022-11-15T15:01:52.614Z,10.68
2022-11-15T15:06:52.514Z,10.7
2022-11-15T15:11:53.018Z,10.66
2022-11-15T15:16:52.478Z,10.6
2022-11-15T15:21:52.519Z,10.61
2022-11-15T15:26:55.454Z,10.57
2022-11-15T15:31:52.556Z,10.52
2022-11-15T15:36:55.057Z,10.47
2022-11-15T15:41:56.297Z,10.47
2022-11-15T15:46:53.295Z,10.4
2022-11-15T15:51:52.467Z,10.4
2022-11-15T15:56:56.012Z,10.37
2022-11-15T16:01:52.429Z,10.36
2022-11-15T16:06:57.721Z,10.32
2022-11-15T16:11:52.502Z,10.31
2022-11-15T16:16:54.714Z,10.3
2022-11-15T16:21:52.745Z,10.28
2022-11-15T16:26:53.306Z,10.29
2022-11-15T16:31:52.397Z,10.27
2022-11-15T16:36:54.597Z,10.24
2022-11-15T16:41:52.420Z,10.23
2022-11-15T16:46:55.627Z,10.23
2022-11-15T16:51:54.126Z,10.22
2022-11-15T16:56:56.271Z,10.23
2022-11-15T17:01:54.455Z,10.21
2022-11-15T17:06:56.917Z,10.19
2022-11-15T17:11:52.768Z,10.17
2022-11-15T17:16:55.720Z,10.13
2022-11-15T17:21:53.954Z,10.09
2022-11-15T17:26:52.604Z,10.04
2022-11-15T17:31:56.436Z,9.99
2022-11-15T17:36:54.963Z,9.94
2022-11-15T17:41:52.452Z,9.9
2022-11-15T17:46:53.226Z,9.87
2022-11-15T17:51:52.686Z,9.83
2022-11-15T17:56:54.307Z,9.8
2022-11-15T18:01:53.596Z,9.77
2022-11-15T18:06:56.149Z,9.73
2022-11-15T18:11:55.425Z,9.72
2022-11-15T18:16:54.687Z,9.7
2022-11-15T18:22:04.797Z,9.67
2022-11-15T18:26:52.652Z,9.64
2022-11-15T18:31:55.565Z,9.65
2022-11-15T18:36:59.327Z,9.62
2022-11-15T18:41:52.479Z,9.63
2022-11-15T18:46:54.763Z,9.63
2022-11-15T18:51:52.648Z,9.64
2022-11-15T18:56:53.144Z,9.66
2022-11-15T19:01:52.763Z,9.66
2022-11-15T19:07:00.090Z,9.66
2022-11-15T19:11:52.897Z,9.67
2022-11-15T19:16:54.418Z,9.69
2022-11-15T19:21:52.721Z,9.69
2022-11-15T19:26:57.235Z,9.7
2022-11-15T19:31:54.876Z,9.7
2022-11-15T19:36:58.925Z,9.71
2022-11-15T19:41:52.473Z,9.71
2022-11-15T19:46:52.362Z,9.73
2022-11-15T19:51:52.437Z,9.75
2022-11-15T19:56:52.591Z,9.76
2022-11-15T20:01:52.544Z,9.78
2022-11-15T20:06:59.609Z,9.78
2022-11-15T20:11:54.982Z,9.8
2022-11-15T20:16:54.452Z,9.82
2022-11-15T20:21:52.435Z,9.84
2022-11-15T20:26:55.305Z,9.87
2022-11-15T20:31:52.333Z,9.88
2022-11-15T20:37:02.551Z,9.91
2022-11-15T20:41:52.453Z,9.91
2022-11-15T20:46:55.072Z,9.92
2022-11-15T20:51:52.384Z,9.94
2022-11-15T20:56:55.212Z,9.96
2022-11-15T21:01:55.361Z,9.98
2022-11-15T21:07:01.876Z,9.99
2022-11-15T21:12:03.759Z,9.99
2022-11-15T21:16:52.327Z,10.01
2022-11-15T21:21:52.408Z,10.02
2022-11-15T21:26:52.492Z,10.03
2022-11-15T21:31:53.118Z,10.03
2022-11-15T21:36:52.404Z,10.04
2022-11-15T21:41:55.071Z,10.05
2022-11-15T21:46:52.613Z,10.06
2022-11-15T21:51:52.361Z,10.08
2022-11-15T21:56:52.430Z,10.1
2022-11-15T22:02:03.698Z,10.11
2022-11-15T22:06:52.681Z,10.12
2022-11-15T22:11:52.371Z,10.12
2022-11-15T22:16:52.761Z,10.13
2022-11-15T22:21:52.437Z,10.15
2022-11-15T22:26:52.604Z,10.17
2022-11-15T22:31:52.609Z,10.17
2022-11-15T22:37:13.115Z,10.19
2022-11-15T22:41:53.135Z,10.19
2022-11-15T22:46:52.569Z,10.22
2022-11-15T22:51:52.694Z,10.22
2022-11-15T22:56:53.069Z,10.22
2022-11-15T23:01:53.793Z,10.23
2022-11-15T23:06:55.018Z,10.25
2022-11-15T23:12:03.624Z,10.26
2022-11-15T23:16:52.405Z,10.27
2022-11-15T23:22:03.563Z,10.28
2022-11-15T23:26:53.373Z,10.29
2022-11-15T23:32:03.716Z,10.3
2022-11-15T23:36:55.350Z,10.3
2022-11-15T23:41:52.918Z,10.32
2022-11-15T23:46:52.421Z,10.33
2022-11-15T23:51:52.624Z,10.33
2022-11-15T23:56:52.586Z,10.35
